SKL3 NZNR-NZWN
Flight info
| Callsign | SKL3 |
|---|---|
| Flight time | 0h 34m |
| Altitude | 30000 |
| Route | NIXOT H103 RIDLA H201 PM V242 DOGAD |
| Aircraft | C25C/M-SDE2E3FGHRWXY/LB1 |
Departure
| Time | 2026-04-25 04:53 |
|---|---|
| Airport | Hawke's Bay Airport (NZNR) |
Arrival
| Time | 2026-04-25 05:27 |
|---|---|
| Airport | Wellington International Airport (NZWN) |
| Time | Latitude | Longitude | Altitude | Speed | Heading |
|---|---|---|---|---|---|
| 2026-04-25 04:22 | -39.46575 | 176.87225 | 15 ft | 0 kts | 17° |
| 2026-04-25 04:23 | -39.46590 | 176.87202 | 15 ft | 0 kts | 285° |
| 2026-04-25 04:50 | -39.46584 | 176.87173 | 10 ft | 10 kts | 285° |
| 2026-04-25 04:50 | -39.46590 | 176.87142 | 9 ft | 11 kts | 218° |
| 2026-04-25 04:50 | -39.46668 | 176.87063 | 9 ft | 15 kts | 251° |
| 2026-04-25 04:50 | -39.46664 | 176.86904 | 10 ft | 22 kts | 274° |
| 2026-04-25 04:51 | -39.46703 | 176.86746 | 10 ft | 21 kts | 187° |
| 2026-04-25 04:51 | -39.46922 | 176.86720 | 11 ft | 37 kts | 185° |
| 2026-04-25 04:51 | -39.47181 | 176.86695 | 7 ft | 38 kts | 187° |
| 2026-04-25 04:51 | -39.47445 | 176.86664 | 8 ft | 40 kts | 185° |
| 2026-04-25 04:52 | -39.47727 | 176.86650 | 9 ft | 27 kts | 167° |
| 2026-04-25 04:52 | -39.47745 | 176.86625 | 8 ft | 4 kts | 40° |
| 2026-04-25 04:52 | -39.47732 | 176.86633 | 8 ft | 0 kts | 7° |
| 2026-04-25 04:52 | -39.47729 | 176.86633 | 8 ft | 6 kts | 7° |
| 2026-04-25 04:53 | -39.47340 | 176.86677 | 7 ft | 113 kts | 5° |
| 2026-04-25 04:53 | -39.46297 | 176.86787 | 426 ft | 171 kts | 5° |
| 2026-04-25 04:53 | -39.45068 | 176.87145 | 1227 ft | 198 kts | 33° |
| 2026-04-25 04:53 | -39.44065 | 176.88515 | 2327 ft | 224 kts | 59° |
| 2026-04-25 04:54 | -39.43820 | 176.90585 | 3404 ft | 246 kts | 99° |
| 2026-04-25 04:54 | -39.44511 | 176.92564 | 4495 ft | 229 kts | 122° |
| 2026-04-25 04:54 | -39.45491 | 176.94275 | 4656 ft | 255 kts | 130° |
| 2026-04-25 04:54 | -39.46613 | 176.96061 | 5931 ft | 253 kts | 132° |
| 2026-04-25 04:55 | -39.48126 | 176.97136 | 7156 ft | 255 kts | 170° |
| 2026-04-25 04:55 | -39.49878 | 176.97002 | 8254 ft | 260 kts | 193° |
| 2026-04-25 04:55 | -39.51446 | 176.95808 | 9311 ft | 268 kts | 220° |
| 2026-04-25 04:55 | -39.52706 | 176.93957 | 10060 ft | 284 kts | 230° |
| 2026-04-25 04:56 | -39.53918 | 176.91948 | 11044 ft | 283 kts | 230° |
| 2026-04-25 04:56 | -39.55203 | 176.89986 | 11914 ft | 287 kts | 227° |
| 2026-04-25 04:56 | -39.56525 | 176.88029 | 12795 ft | 290 kts | 227° |
| 2026-04-25 04:56 | -39.57866 | 176.86037 | 13662 ft | 294 kts | 228° |
| 2026-04-25 04:57 | -39.59204 | 176.84007 | 14446 ft | 297 kts | 228° |
| 2026-04-25 04:57 | -39.60559 | 176.81960 | 15143 ft | 301 kts | 228° |
| 2026-04-25 04:57 | -39.61933 | 176.79888 | 15816 ft | 305 kts | 227° |
| 2026-04-25 04:57 | -39.63317 | 176.77784 | 16461 ft | 309 kts | 229° |
| 2026-04-25 04:58 | -39.64659 | 176.75571 | 17082 ft | 318 kts | 231° |
| 2026-04-25 04:58 | -39.66005 | 176.73328 | 18655 ft | 315 kts | 230° |
| 2026-04-25 04:58 | -39.67388 | 176.71063 | 19759 ft | 325 kts | 230° |
| 2026-04-25 04:58 | -39.68803 | 176.68779 | 20866 ft | 332 kts | 229° |
| 2026-04-25 04:59 | -39.70257 | 176.66402 | 21969 ft | 340 kts | 229° |
| 2026-04-25 04:59 | -39.71742 | 176.63972 | 23018 ft | 348 kts | 229° |
| 2026-04-25 04:59 | -39.73262 | 176.61482 | 24014 ft | 355 kts | 229° |
| 2026-04-25 04:59 | -39.74810 | 176.58947 | 24897 ft | 360 kts | 229° |
| 2026-04-25 05:00 | -39.76376 | 176.56385 | 25778 ft | 365 kts | 229° |
| 2026-04-25 05:00 | -39.77965 | 176.53773 | 26634 ft | 369 kts | 228° |
| 2026-04-25 05:00 | -39.79570 | 176.51143 | 27477 ft | 373 kts | 228° |
| 2026-04-25 05:00 | -39.81191 | 176.48478 | 28290 ft | 377 kts | 228° |
| 2026-04-25 05:01 | -39.82828 | 176.45785 | 29082 ft | 381 kts | 228° |
| 2026-04-25 05:01 | -39.84480 | 176.43068 | 29834 ft | 385 kts | 228° |
| 2026-04-25 05:01 | -39.86161 | 176.40299 | 30245 ft | 397 kts | 228° |
| 2026-04-25 05:01 | -39.87920 | 176.37410 | 30250 ft | 416 kts | 228° |
| 2026-04-25 05:02 | -39.89747 | 176.34389 | 30247 ft | 431 kts | 228° |
| 2026-04-25 05:02 | -39.91631 | 176.31277 | 30249 ft | 444 kts | 229° |
| 2026-04-25 05:02 | -39.93537 | 176.28118 | 30249 ft | 454 kts | 229° |
| 2026-04-25 05:03 | -39.97462 | 176.21613 | 30259 ft | 438 kts | 229° |
| 2026-04-25 05:03 | -39.99286 | 176.18574 | 30248 ft | 413 kts | 228° |
| 2026-04-25 05:03 | -40.01015 | 176.15709 | 30253 ft | 392 kts | 228° |
| 2026-04-25 05:03 | -40.02665 | 176.12973 | 30250 ft | 376 kts | 228° |
| 2026-04-25 05:04 | -40.04252 | 176.10336 | 30259 ft | 362 kts | 228° |
| 2026-04-25 05:04 | -40.05780 | 176.07792 | 30253 ft | 350 kts | 227° |
| 2026-04-25 05:04 | -40.07241 | 176.05356 | 30270 ft | 340 kts | 227° |
| 2026-04-25 05:05 | -40.10085 | 176.00618 | 30268 ft | 323 kts | 227° |
| 2026-04-25 05:05 | -40.12861 | 175.95995 | 30263 ft | 339 kts | 227° |
| 2026-04-25 05:05 | -40.14372 | 175.93478 | 30257 ft | 365 kts | 228° |
| 2026-04-25 05:06 | -40.15984 | 175.90777 | 30250 ft | 388 kts | 228° |
| 2026-04-25 05:06 | -40.17686 | 175.87916 | 30255 ft | 408 kts | 228° |
| 2026-04-25 05:06 | -40.19466 | 175.84929 | 30259 ft | 424 kts | 229° |
| 2026-04-25 05:06 | -40.21313 | 175.81834 | 30255 ft | 438 kts | 229° |
| 2026-04-25 05:07 | -40.23206 | 175.78649 | 30258 ft | 449 kts | 229° |
| 2026-04-25 05:07 | -40.26448 | 175.73193 | 30266 ft | 464 kts | 229° |
| 2026-04-25 05:08 | -40.31538 | 175.65826 | 30273 ft | 472 kts | 218° |
| 2026-04-25 05:08 | -40.35841 | 175.61876 | 30264 ft | 427 kts | 206° |
| 2026-04-25 05:08 | -40.38412 | 175.60185 | 30256 ft | 399 kts | 200° |
| 2026-04-25 05:09 | -40.40891 | 175.58811 | 30261 ft | 377 kts | 200° |
| 2026-04-25 05:09 | -40.43248 | 175.57468 | 30259 ft | 360 kts | 200° |
| 2026-04-25 05:09 | -40.45499 | 175.56189 | 30267 ft | 346 kts | 200° |
| 2026-04-25 05:09 | -40.47673 | 175.54968 | 30269 ft | 334 kts | 200° |
| 2026-04-25 05:10 | -40.49774 | 175.53784 | 30269 ft | 323 kts | 200° |
| 2026-04-25 05:10 | -40.53802 | 175.51507 | 30269 ft | 307 kts | 200° |
| 2026-04-25 05:10 | -40.55804 | 175.50376 | 30273 ft | 323 kts | 200° |
| 2026-04-25 05:11 | -40.57957 | 175.49168 | 29968 ft | 353 kts | 200° |
| 2026-04-25 05:11 | -40.60327 | 175.47827 | 29307 ft | 389 kts | 201° |
| 2026-04-25 05:11 | -40.62910 | 175.46354 | 28591 ft | 420 kts | 201° |
| 2026-04-25 05:12 | -40.68496 | 175.43177 | 27046 ft | 439 kts | 201° |
| 2026-04-25 05:12 | -40.71256 | 175.41607 | 26293 ft | 425 kts | 201° |
| 2026-04-25 05:12 | -40.73928 | 175.40084 | 25545 ft | 411 kts | 201° |
| 2026-04-25 05:12 | -40.76521 | 175.38615 | 24830 ft | 400 kts | 201° |
| 2026-04-25 05:13 | -40.79044 | 175.37173 | 24131 ft | 391 kts | 201° |
| 2026-04-25 05:13 | -40.81478 | 175.35788 | 23420 ft | 384 kts | 201° |
| 2026-04-25 05:13 | -40.83940 | 175.34382 | 22734 ft | 376 kts | 202° |
| 2026-04-25 05:13 | -40.86354 | 175.33011 | 22068 ft | 378 kts | 202° |
| 2026-04-25 05:14 | -40.88744 | 175.31643 | 21408 ft | 380 kts | 202° |
| 2026-04-25 05:14 | -40.91187 | 175.30248 | 20733 ft | 382 kts | 202° |
| 2026-04-25 05:14 | -40.93619 | 175.28854 | 20061 ft | 378 kts | 202° |
| 2026-04-25 05:15 | -40.98376 | 175.26124 | 18742 ft | 367 kts | 202° |
| 2026-04-25 05:15 | -41.00705 | 175.24789 | 18062 ft | 362 kts | 202° |
| 2026-04-25 05:15 | -41.03001 | 175.23461 | 17422 ft | 357 kts | 202° |
| 2026-04-25 05:15 | -41.05269 | 175.22152 | 16560 ft | 358 kts | 203° |
| 2026-04-25 05:16 | -41.07431 | 175.20527 | 15890 ft | 354 kts | 211° |
| 2026-04-25 05:16 | -41.09532 | 175.18850 | 15267 ft | 350 kts | 210° |
| 2026-04-25 05:16 | -41.11619 | 175.17212 | 14653 ft | 347 kts | 210° |
| 2026-04-25 05:16 | -41.13689 | 175.15585 | 14042 ft | 345 kts | 210° |
| 2026-04-25 05:17 | -41.15738 | 175.13949 | 13406 ft | 342 kts | 210° |
| 2026-04-25 05:17 | -41.17774 | 175.12338 | 12803 ft | 339 kts | 210° |
| 2026-04-25 05:17 | -41.19785 | 175.10740 | 12212 ft | 336 kts | 210° |
| 2026-04-25 05:17 | -41.21782 | 175.09154 | 11620 ft | 334 kts | 210° |
| 2026-04-25 05:18 | -41.23767 | 175.07575 | 11037 ft | 332 kts | 210° |
| 2026-04-25 05:18 | -41.25748 | 175.06004 | 10450 ft | 330 kts | 210° |
| 2026-04-25 05:18 | -41.27710 | 175.04440 | 9849 ft | 329 kts | 210° |
| 2026-04-25 05:18 | -41.29642 | 175.02899 | 9270 ft | 326 kts | 210° |
| 2026-04-25 05:19 | -41.31556 | 175.01289 | 8694 ft | 324 kts | 214° |
| 2026-04-25 05:19 | -41.33421 | 174.99593 | 8122 ft | 322 kts | 212° |
| 2026-04-25 05:19 | -41.35282 | 174.98001 | 7561 ft | 304 kts | 212° |
| 2026-04-25 05:19 | -41.36958 | 174.96523 | 7052 ft | 276 kts | 213° |
| 2026-04-25 05:20 | -41.38490 | 174.95154 | 6605 ft | 256 kts | 213° |
| 2026-04-25 05:20 | -41.39922 | 174.93879 | 6186 ft | 239 kts | 213° |
| 2026-04-25 05:20 | -41.41291 | 174.92667 | 5785 ft | 239 kts | 212° |
| 2026-04-25 05:20 | -41.42690 | 174.91485 | 5373 ft | 236 kts | 205° |
| 2026-04-25 05:21 | -41.44272 | 174.91089 | 4977 ft | 230 kts | 184° |
| 2026-04-25 05:21 | -41.45850 | 174.90938 | 4607 ft | 225 kts | 184° |
| 2026-04-25 05:21 | -41.47396 | 174.90823 | 4238 ft | 221 kts | 185° |
| 2026-04-25 05:21 | -41.48812 | 174.90150 | 3868 ft | 218 kts | 215° |
| 2026-04-25 05:22 | -41.49813 | 174.88653 | 3501 ft | 219 kts | 243° |
| 2026-04-25 05:22 | -41.50137 | 174.86684 | 3131 ft | 220 kts | 269° |
| 2026-04-25 05:22 | -41.50061 | 174.84687 | 3019 ft | 209 kts | 271° |
| 2026-04-25 05:22 | -41.49976 | 174.82815 | 2998 ft | 196 kts | 274° |
| 2026-04-25 05:23 | -41.49540 | 174.81159 | 2990 ft | 188 kts | 305° |
| 2026-04-25 05:23 | -41.48584 | 174.80038 | 2975 ft | 183 kts | 333° |
| 2026-04-25 05:23 | -41.47331 | 174.79677 | 2772 ft | 192 kts | 0° |
| 2026-04-25 05:23 | -41.45940 | 174.79781 | 2501 ft | 208 kts | 2° |
| 2026-04-25 05:24 | -41.44483 | 174.79892 | 2213 ft | 210 kts | 2° |
| 2026-04-25 05:24 | -41.43047 | 174.79991 | 1936 ft | 195 kts | 2° |
| 2026-04-25 05:24 | -41.41825 | 174.80077 | 1685 ft | 155 kts | 1° |
| 2026-04-25 05:24 | -41.40864 | 174.80143 | 1463 ft | 130 kts | 1° |
| 2026-04-25 05:25 | -41.40013 | 174.80196 | 1286 ft | 118 kts | 1° |
| 2026-04-25 05:25 | -41.39218 | 174.80251 | 1120 ft | 111 kts | 1° |
| 2026-04-25 05:25 | -41.38458 | 174.80303 | 976 ft | 108 kts | 2° |
| 2026-04-25 05:25 | -41.37719 | 174.80340 | 815 ft | 104 kts | 0° |
| 2026-04-25 05:26 | -41.36988 | 174.80386 | 677 ft | 105 kts | 4° |
| 2026-04-25 05:26 | -41.36268 | 174.80459 | 556 ft | 104 kts | 4° |
| 2026-04-25 05:26 | -41.35549 | 174.80504 | 462 ft | 102 kts | 2° |
| 2026-04-25 05:26 | -41.34841 | 174.80567 | 331 ft | 102 kts | 2° |
| 2026-04-25 05:27 | -41.34148 | 174.80604 | 199 ft | 99 kts | 1° |
| 2026-04-25 05:27 | -41.33466 | 174.80639 | 55 ft | 93 kts | 2° |
| 2026-04-25 05:27 | -41.32900 | 174.80677 | 22 ft | 69 kts | 3° |
| 2026-04-25 05:27 | -41.32519 | 174.80661 | 26 ft | 32 kts | 308° |
| 2026-04-25 05:28 | -41.32526 | 174.80554 | 22 ft | 0 kts | 201° |
| 2026-04-25 05:28 | -41.32536 | 174.80558 | 24 ft | 5 kts | 155° |
| 2026-04-25 05:28 | -41.32551 | 174.80532 | 22 ft | 11 kts | 276° |
| 2026-04-25 05:28 | -41.32554 | 174.80505 | 22 ft | 0 kts | 204° |
| 2026-04-25 05:29 | -41.32574 | 174.80501 | 24 ft | 0 kts | 181° |